createdAt,value
2022-10-06T00:00:27.936Z,16.50
2022-10-06T00:03:07.340Z,15.98
2022-10-06T00:05:43.288Z,15.18
2022-10-06T00:08:23.662Z,14.90
2022-10-06T00:11:11.387Z,15.18
2022-10-06T00:13:38.901Z,15.55
2022-10-06T00:16:26.946Z,18.05
2022-10-06T00:18:53.837Z,17.80
2022-10-06T00:21:25.303Z,16.98
2022-10-06T00:24:12.340Z,18.65
2022-10-06T00:26:50.139Z,17.52
2022-10-06T00:29:19.629Z,18.20
2022-10-06T00:32:00.681Z,17.98
2022-10-06T00:34:29.747Z,16.77
2022-10-06T00:37:12.434Z,18.10
2022-10-06T00:39:49.150Z,17.52
2022-10-06T00:42:26.508Z,18.40
2022-10-06T00:44:54.148Z,17.65
2022-10-06T00:47:38.920Z,18.23
2022-10-06T00:50:13.011Z,18.15
2022-10-06T00:52:44.457Z,18.05
2022-10-06T00:55:41.945Z,19.17
2022-10-06T00:58:19.733Z,18.88
2022-10-06T01:01:02.528Z,18.38
2022-10-06T01:03:46.387Z,17.95
2022-10-06T01:06:24.376Z,18.40
2022-10-06T01:09:00.022Z,17.80
2022-10-06T01:11:35.868Z,16.95
2022-10-06T01:14:08.077Z,16.33
2022-10-06T01:16:50.392Z,16.30
2022-10-06T01:19:43.837Z,16.45
2022-10-06T01:22:17.300Z,15.90
2022-10-06T01:24:50.690Z,14.77
2022-10-06T01:27:30.895Z,16.10
2022-10-06T01:30:03.658Z,17.45
2022-10-06T01:32:39.096Z,19.30
2022-10-06T01:35:12.591Z,18.10
2022-10-06T01:38:01.659Z,16.45
2022-10-06T01:40:44.448Z,16.70
2022-10-06T01:45:59.934Z,17.63
2022-10-06T01:48:35.674Z,17.85
2022-10-06T01:51:13.216Z,19.80
2022-10-06T01:53:51.322Z,18.38
2022-10-06T01:56:37.900Z,17.98
2022-10-06T01:59:15.109Z,19.65
2022-10-06T02:01:51.184Z,21.48
2022-10-06T02:04:28.588Z,20.05
2022-10-06T02:07:01.151Z,21.17
2022-10-06T02:09:49.899Z,21.00
2022-10-06T02:12:25.945Z,22.40
2022-10-06T02:15:14.366Z,21.23
2022-10-06T02:17:55.380Z,21.92
2022-10-06T02:20:34.861Z,28.50
2022-10-06T02:23:14.780Z,30.98
2022-10-06T02:25:53.406Z,30.00
2022-10-06T02:28:26.753Z,34.47
2022-10-06T02:31:11.150Z,41.20
2022-10-06T02:33:48.999Z,41.10
2022-10-06T02:36:48.161Z,48.63
2022-10-06T02:39:21.081Z,47.15
2022-10-06T02:42:01.428Z,48.95
2022-10-06T02:44:42.730Z,43.53
2022-10-06T02:47:24.172Z,40.10
2022-10-06T02:50:02.507Z,37.78
2022-10-06T02:52:38.347Z,40.30
2022-10-06T02:55:09.290Z,40.45
2022-10-06T02:57:45.089Z,41.53
2022-10-06T03:00:18.725Z,36.53
2022-10-06T03:02:57.152Z,41.30
2022-10-06T03:05:40.028Z,42.67
2022-10-06T03:08:16.524Z,44.35
2022-10-06T03:10:55.387Z,45.25
2022-10-06T03:13:38.447Z,42.80
2022-10-06T03:16:34.054Z,49.20
2022-10-06T03:19:13.251Z,46.15
2022-10-06T03:22:00.762Z,47.72
2022-10-06T03:24:48.071Z,45.25
2022-10-06T03:27:29.576Z,46.85
2022-10-06T03:30:07.053Z,41.25
2022-10-06T03:32:42.834Z,47.25
2022-10-06T03:35:18.971Z,48.50
2022-10-06T03:38:12.110Z,45.03
2022-10-06T03:40:51.797Z,43.63
2022-10-06T03:43:26.041Z,44.60
2022-10-06T03:46:04.095Z,41.40
2022-10-06T03:48:44.226Z,40.90
2022-10-06T03:51:26.117Z,40.13
2022-10-06T03:54:02.197Z,41.15
2022-10-06T03:56:42.804Z,40.88
2022-10-06T03:59:24.177Z,39.13
2022-10-06T04:01:59.976Z,40.08
2022-10-06T04:04:39.098Z,36.60
2022-10-06T04:07:23.194Z,38.33
2022-10-06T04:10:00.967Z,37.28
2022-10-06T04:12:43.969Z,38.25
2022-10-06T04:15:39.805Z,37.80
2022-10-06T04:18:29.114Z,38.67
2022-10-06T04:21:28.693Z,39.97
2022-10-06T04:24:12.803Z,47.15
2022-10-06T04:27:32.079Z,40.78
2022-10-06T04:30:14.187Z,44.22
2022-10-06T04:33:04.575Z,42.75
2022-10-06T04:36:23.839Z,46.97
2022-10-06T04:39:10.417Z,45.78
2022-10-06T04:41:54.794Z,50.88
2022-10-06T04:44:50.053Z,52.53
2022-10-06T04:47:53.874Z,49.03
2022-10-06T04:50:34.635Z,46.75
2022-10-06T04:53:55.528Z,47.25
2022-10-06T04:56:35.055Z,50.42
2022-10-06T04:59:16.952Z,51.17
2022-10-06T05:01:51.046Z,52.03
2022-10-06T05:04:28.320Z,50.53
2022-10-06T05:07:12.898Z,48.05
2022-10-06T05:09:50.524Z,50.40
2022-10-06T05:12:52.674Z,50.65
2022-10-06T05:15:35.250Z,46.85
2022-10-06T05:18:12.702Z,51.55
2022-10-06T05:21:25.322Z,50.42
2022-10-06T05:24:01.667Z,55.00
2022-10-06T05:26:37.753Z,53.10
2022-10-06T05:29:22.871Z,56.38
2022-10-06T05:32:02.042Z,52.97
2022-10-06T05:34:35.126Z,53.30
2022-10-06T05:37:12.305Z,59.50
2022-10-06T05:40:10.870Z,65.90
2022-10-06T05:43:42.814Z,65.88
2022-10-06T05:46:41.096Z,67.03
2022-10-06T05:49:24.978Z,76.03
2022-10-06T05:52:20.639Z,83.80
2022-10-06T05:55:01.104Z,82.57
2022-10-06T05:57:35.870Z,79.22
2022-10-06T06:00:13.173Z,80.47
2022-10-06T06:02:52.621Z,68.10
2022-10-06T06:05:30.435Z,67.57
2022-10-06T06:08:04.230Z,63.08
2022-10-06T06:13:23.031Z,53.80
2022-10-06T06:16:18.825Z,55.00
2022-10-06T06:18:51.699Z,52.42
2022-10-06T06:21:28.057Z,48.28
2022-10-06T06:24:06.891Z,45.22
2022-10-06T06:26:45.063Z,38.35
2022-10-06T06:29:24.147Z,36.97
2022-10-06T06:32:06.651Z,36.08
2022-10-06T06:34:46.446Z,34.60
2022-10-06T06:37:25.481Z,32.28
2022-10-06T06:40:03.784Z,33.50
2022-10-06T06:42:50.383Z,36.53
2022-10-06T06:45:49.864Z,31.45
2022-10-06T06:48:56.433Z,29.55
2022-10-06T06:51:38.532Z,26.05
2022-10-06T06:54:23.210Z,23.05
2022-10-06T06:57:08.167Z,22.05
2022-10-06T06:59:44.811Z,22.77
2022-10-06T07:02:29.524Z,20.85
2022-10-06T07:05:25.685Z,19.95
2022-10-06T07:08:11.681Z,21.80
2022-10-06T07:10:45.262Z,19.23
2022-10-06T07:13:25.677Z,23.65
2022-10-06T07:16:17.652Z,22.38
2022-10-06T07:19:13.571Z,21.63
2022-10-06T07:22:10.494Z,21.42
2022-10-06T07:24:56.099Z,20.38
2022-10-06T07:27:43.177Z,22.30
2022-10-06T07:30:27.686Z,19.33
2022-10-06T07:33:11.731Z,18.52
2022-10-06T07:36:00.354Z,19.73
2022-10-06T07:38:41.623Z,17.90
2022-10-06T07:41:20.883Z,17.85
2022-10-06T07:44:08.028Z,19.35
2022-10-06T07:46:49.229Z,17.60
2022-10-06T07:49:27.376Z,19.65
2022-10-06T07:52:07.125Z,18.92
2022-10-06T07:54:41.639Z,17.80
2022-10-06T07:57:34.793Z,16.65
2022-10-06T08:00:12.774Z,18.38
2022-10-06T08:02:55.000Z,17.55
2022-10-06T08:05:30.453Z,17.40
2022-10-06T08:08:00.763Z,17.35
2022-10-06T08:10:38.608Z,15.80
2022-10-06T08:13:20.767Z,14.75
2022-10-06T08:15:52.760Z,16.00
2022-10-06T08:18:51.795Z,16.05
2022-10-06T08:21:27.770Z,16.50
2022-10-06T08:24:03.334Z,15.82
2022-10-06T08:26:39.115Z,16.58
2022-10-06T08:29:17.276Z,16.58
2022-10-06T08:31:57.326Z,15.80
2022-10-06T08:34:36.224Z,15.48
2022-10-06T08:37:20.155Z,15.25
2022-10-06T08:39:51.934Z,13.18
2022-10-06T08:42:38.383Z,14.32
2022-10-06T08:45:46.712Z,12.27
2022-10-06T08:48:26.929Z,13.85
2022-10-06T08:51:21.819Z,12.43
2022-10-06T08:54:08.314Z,12.07
2022-10-06T08:57:18.703Z,13.38
2022-10-06T09:00:02.079Z,11.30
2022-10-06T09:02:41.723Z,11.88
2022-10-06T09:05:31.905Z,12.38
2022-10-06T09:08:32.589Z,12.02
2022-10-06T09:11:20.969Z,10.73
2022-10-06T09:14:06.631Z,10.13
2022-10-06T09:16:41.203Z,10.70
2022-10-06T09:19:27.834Z,10.48
2022-10-06T09:22:16.498Z,10.88
2022-10-06T09:24:57.432Z,11.15
2022-10-06T09:27:47.553Z,9.57
2022-10-06T09:30:20.582Z,8.77
2022-10-06T09:32:59.363Z,8.50
2022-10-06T09:35:35.091Z,8.02
2022-10-06T09:38:13.268Z,7.70
2022-10-06T09:43:33.809Z,7.40
2022-10-06T09:46:39.845Z,7.43
2022-10-06T09:49:16.185Z,7.05
2022-10-06T09:52:15.206Z,7.18
2022-10-06T09:54:47.800Z,4.80
2022-10-06T09:57:30.238Z,5.47
2022-10-06T10:00:10.824Z,4.78
2022-10-06T10:02:46.582Z,6.40
2022-10-06T10:05:25.652Z,6.15
2022-10-06T10:08:22.408Z,6.35
2022-10-06T10:11:07.774Z,6.03
2022-10-06T10:13:52.508Z,7.15
2022-10-06T10:16:34.972Z,6.82
2022-10-06T10:19:11.481Z,6.03
2022-10-06T10:21:54.011Z,4.63
2022-10-06T10:24:50.598Z,4.80
2022-10-06T10:27:41.080Z,5.53
2022-10-06T10:30:16.872Z,4.65
2022-10-06T10:32:58.015Z,4.90
2022-10-06T10:35:30.644Z,5.05
2022-10-06T10:38:04.350Z,4.70
2022-10-06T10:43:34.468Z,4.28
2022-10-06T10:46:34.714Z,4.00
2022-10-06T10:49:18.433Z,4.05
2022-10-06T10:51:57.371Z,4.68
2022-10-06T10:54:40.599Z,4.00
2022-10-06T10:57:19.219Z,4.78
2022-10-06T11:00:08.032Z,4.20
2022-10-06T11:02:42.422Z,4.32
2022-10-06T11:06:01.377Z,4.88
2022-10-06T11:08:46.509Z,4.85
2022-10-06T11:11:26.352Z,4.65
2022-10-06T11:14:02.682Z,3.85
2022-10-06T11:17:14.193Z,3.85
2022-10-06T11:20:02.851Z,3.92
2022-10-06T11:22:49.739Z,4.50
2022-10-06T11:25:37.909Z,3.67
2022-10-06T11:28:37.844Z,4.32
2022-10-06T11:31:31.143Z,3.58
2022-10-06T11:37:00.828Z,4.93
2022-10-06T11:39:38.950Z,5.03
2022-10-06T11:42:40.760Z,5.43
2022-10-06T11:45:22.602Z,4.25
2022-10-06T11:48:24.274Z,5.03
2022-10-06T11:51:22.477Z,4.72
2022-10-06T11:54:08.532Z,5.28
2022-10-06T11:56:49.611Z,5.05
2022-10-06T11:59:41.712Z,5.55
2022-10-06T12:02:40.283Z,5.50
2022-10-06T12:08:20.869Z,4.85
2022-10-06T12:10:53.184Z,4.82
2022-10-06T12:17:19.521Z,5.13
2022-10-06T12:20:17.529Z,4.65
2022-10-06T12:23:14.417Z,4.30
2022-10-06T12:26:07.651Z,4.57
2022-10-06T12:29:02.654Z,5.40
2022-10-06T12:32:16.130Z,4.93
2022-10-06T12:35:27.705Z,4.00
2022-10-06T12:38:06.014Z,4.63
2022-10-06T12:40:50.227Z,3.90
2022-10-06T12:43:32.719Z,4.75
2022-10-06T12:46:32.006Z,3.92
2022-10-06T12:49:18.228Z,4.32
2022-10-06T12:51:56.044Z,4.72
2022-10-06T12:54:38.122Z,4.50
2022-10-06T12:57:24.053Z,4.05
2022-10-06T12:59:54.039Z,4.35
2022-10-06T13:02:30.772Z,4.22
2022-10-06T13:05:17.266Z,4.45
2022-10-06T13:08:07.945Z,4.68
2022-10-06T13:10:45.257Z,4.97
2022-10-06T13:13:35.153Z,5.20
2022-10-06T13:16:15.941Z,5.10
2022-10-06T13:21:43.842Z,5.53
2022-10-06T13:24:22.709Z,5.20
2022-10-06T13:27:03.002Z,5.20
2022-10-06T13:29:43.130Z,4.88
2022-10-06T13:32:25.824Z,5.70
2022-10-06T13:35:01.544Z,5.32
2022-10-06T13:37:49.190Z,6.70
2022-10-06T13:40:45.809Z,6.22
2022-10-06T13:43:34.156Z,6.97
2022-10-06T13:46:22.142Z,6.45
2022-10-06T13:49:02.709Z,7.72
2022-10-06T13:51:35.163Z,9.30
2022-10-06T13:54:37.298Z,8.50
2022-10-06T13:57:37.811Z,8.20
2022-10-06T14:00:17.102Z,9.50
2022-10-06T14:02:54.353Z,8.68
2022-10-06T14:05:50.978Z,10.70
2022-10-06T14:08:25.175Z,8.95
2022-10-06T14:11:17.229Z,8.98
2022-10-06T14:14:02.071Z,8.43
2022-10-06T14:16:37.463Z,8.73
2022-10-06T14:19:32.987Z,8.77
2022-10-06T14:22:06.175Z,8.02
2022-10-06T14:24:53.896Z,7.35
2022-10-06T14:27:26.352Z,8.82
2022-10-06T14:30:08.055Z,9.13
2022-10-06T14:32:48.901Z,8.07
2022-10-06T14:35:26.818Z,7.82
2022-10-06T14:37:57.355Z,8.25
2022-10-06T14:40:36.239Z,7.72
2022-10-06T14:43:08.648Z,8.27
2022-10-06T14:46:01.451Z,6.93
2022-10-06T14:48:45.394Z,7.38
2022-10-06T14:51:21.112Z,6.90
2022-10-06T14:54:03.823Z,7.55
2022-10-06T14:57:04.234Z,6.63
2022-10-06T14:59:49.555Z,7.35
2022-10-06T15:02:30.992Z,5.75
2022-10-06T15:05:13.957Z,6.00
2022-10-06T15:08:06.617Z,6.53
2022-10-06T15:10:39.141Z,5.78
2022-10-06T15:13:10.168Z,6.72
2022-10-06T15:15:59.456Z,6.18
2022-10-06T15:18:35.958Z,6.57
2022-10-06T15:21:23.958Z,6.68
2022-10-06T15:24:05.233Z,7.03
2022-10-06T15:27:01.230Z,8.23
2022-10-06T15:29:31.285Z,8.20
2022-10-06T15:32:08.422Z,6.97
2022-10-06T15:34:50.613Z,7.90
2022-10-06T15:37:25.015Z,7.53
2022-10-06T15:40:07.651Z,8.27
2022-10-06T15:42:37.527Z,8.45
2022-10-06T15:45:18.211Z,8.87
2022-10-06T15:48:03.520Z,8.15
2022-10-06T15:50:36.957Z,8.40
2022-10-06T15:53:12.193Z,8.73
2022-10-06T15:55:52.963Z,8.40
2022-10-06T15:58:30.579Z,8.05
2022-10-06T16:01:08.008Z,8.85
2022-10-06T16:03:44.573Z,8.25
2022-10-06T16:06:29.809Z,7.75
2022-10-06T16:09:00.953Z,7.47
2022-10-06T16:11:33.739Z,7.97
2022-10-06T16:14:04.295Z,8.32
2022-10-06T16:16:46.445Z,7.72
2022-10-06T16:19:21.492Z,7.20
2022-10-06T16:21:58.883Z,6.82
2022-10-06T16:24:29.701Z,7.15
2022-10-06T16:27:05.125Z,6.40
2022-10-06T16:29:42.964Z,6.40
2022-10-06T16:32:27.270Z,7.00
2022-10-06T16:35:18.069Z,6.25
2022-10-06T16:37:55.754Z,7.50
2022-10-06T16:40:23.242Z,6.80
2022-10-06T16:42:55.734Z,6.78
2022-10-06T16:45:25.363Z,7.70
2022-10-06T16:48:00.773Z,8.48
2022-10-06T16:50:33.392Z,8.00
2022-10-06T16:53:02.828Z,8.80
2022-10-06T16:55:29.623Z,9.40
2022-10-06T16:58:08.008Z,8.93
2022-10-06T17:00:38.307Z,10.15
2022-10-06T17:03:13.908Z,10.10
2022-10-06T17:05:51.305Z,11.80
2022-10-06T17:08:36.630Z,14.63
2022-10-06T17:11:18.719Z,13.93
2022-10-06T17:14:09.024Z,12.68
2022-10-06T17:16:48.317Z,12.15
2022-10-06T17:19:37.889Z,12.70
2022-10-06T17:22:16.287Z,12.50
2022-10-06T17:24:53.584Z,12.00
2022-10-06T17:27:41.815Z,10.90
2022-10-06T17:30:09.528Z,16.15
2022-10-06T17:32:50.601Z,14.80
2022-10-06T17:35:23.432Z,14.82
2022-10-06T17:37:58.272Z,14.73
2022-10-06T17:40:34.990Z,15.00
2022-10-06T17:43:01.887Z,24.55
2022-10-06T17:45:32.523Z,23.45
2022-10-06T17:48:02.835Z,21.70
2022-10-06T17:51:03.805Z,18.45
2022-10-06T17:53:49.358Z,18.20
2022-10-06T17:56:29.738Z,19.10
2022-10-06T17:59:04.112Z,16.42
2022-10-06T18:01:38.141Z,16.30
2022-10-06T18:04:15.061Z,14.00
2022-10-06T18:06:47.783Z,13.52
2022-10-06T18:09:23.741Z,13.55
2022-10-06T18:12:02.841Z,14.75
2022-10-06T18:14:36.494Z,16.77
2022-10-06T18:17:09.038Z,18.73
2022-10-06T18:19:45.568Z,19.55
2022-10-06T18:22:16.967Z,19.55
2022-10-06T18:25:03.972Z,20.60
2022-10-06T18:27:36.529Z,23.80
2022-10-06T18:30:09.580Z,22.45
2022-10-06T18:38:47.635Z,24.15
2022-10-06T18:41:19.963Z,22.40
2022-10-06T18:43:55.909Z,23.58
2022-10-06T18:47:05.299Z,21.63
2022-10-06T18:49:42.183Z,19.08
2022-10-06T18:52:20.722Z,19.88
2022-10-06T18:54:57.619Z,18.95
2022-10-06T18:57:38.806Z,20.10
2022-10-06T19:00:20.265Z,18.63
2022-10-06T19:02:56.973Z,18.23
2022-10-06T19:06:11.069Z,20.63
2022-10-06T19:08:51.107Z,20.92
2022-10-06T19:11:36.505Z,23.15
2022-10-06T19:14:09.585Z,24.35
2022-10-06T19:17:02.421Z,24.88
2022-10-06T19:19:57.771Z,24.63
2022-10-06T19:22:30.958Z,26.20
2022-10-06T19:25:12.628Z,25.55
2022-10-06T19:27:53.746Z,28.70
2022-10-06T19:30:35.104Z,26.17
2022-10-06T19:33:12.399Z,26.00
2022-10-06T19:36:00.487Z,28.17
2022-10-06T19:38:40.437Z,30.75
2022-10-06T19:41:28.666Z,28.38
2022-10-06T19:44:07.676Z,28.08
2022-10-06T19:46:39.881Z,27.98
2022-10-06T19:49:17.592Z,25.50
2022-10-06T19:51:49.559Z,24.70
2022-10-06T19:54:22.077Z,25.60
2022-10-06T19:56:52.166Z,24.70
2022-10-06T19:59:24.085Z,21.73
2022-10-06T20:01:58.963Z,25.75
2022-10-06T20:04:34.223Z,29.35
2022-10-06T20:07:13.866Z,26.25
2022-10-06T20:09:46.933Z,25.13
2022-10-06T20:12:20.972Z,25.77
2022-10-06T20:15:04.667Z,25.75
2022-10-06T20:17:44.519Z,25.10
2022-10-06T20:20:20.472Z,24.95
2022-10-06T20:22:56.866Z,30.15
2022-10-06T20:25:23.765Z,33.80
2022-10-06T20:27:56.206Z,78.50
2022-10-06T20:30:38.490Z,84.82
2022-10-06T20:33:15.511Z,72.22
2022-10-06T20:35:45.880Z,80.93
2022-10-06T20:38:38.192Z,74.10
2022-10-06T20:41:10.915Z,67.10
2022-10-06T20:46:43.868Z,63.05
2022-10-06T20:49:18.210Z,63.45
2022-10-06T20:52:08.610Z,58.88
2022-10-06T20:54:46.723Z,49.10
2022-10-06T20:57:31.391Z,43.05
2022-10-06T21:00:12.932Z,40.50
2022-10-06T21:02:54.012Z,41.00
2022-10-06T21:05:37.317Z,36.17
2022-10-06T21:08:12.345Z,36.90
2022-10-06T21:13:51.807Z,39.45
2022-10-06T21:16:29.945Z,41.60
2022-10-06T21:18:56.706Z,44.35
2022-10-06T21:21:36.767Z,44.25
2022-10-06T21:24:10.294Z,41.80
2022-10-06T21:26:47.557Z,41.25
2022-10-06T21:29:29.100Z,40.15
2022-10-06T21:32:04.023Z,40.30
2022-10-06T21:34:40.191Z,39.13
2022-10-06T21:37:21.224Z,37.85
2022-10-06T21:40:01.332Z,37.53
2022-10-06T21:42:36.600Z,36.72
2022-10-06T21:45:06.351Z,36.15
2022-10-06T21:47:50.295Z,50.45
2022-10-06T21:53:04.675Z,36.55
2022-10-06T21:55:39.676Z,36.10
2022-10-06T21:58:19.034Z,31.23
2022-10-06T22:01:01.395Z,29.35
2022-10-06T22:03:36.270Z,30.48
2022-10-06T22:06:16.801Z,30.45
2022-10-06T22:08:51.376Z,27.60
2022-10-06T22:11:24.378Z,27.45
2022-10-06T22:13:58.914Z,28.33
2022-10-06T22:16:38.361Z,31.20
2022-10-06T22:19:07.723Z,29.60
2022-10-06T22:21:47.099Z,26.75
2022-10-06T22:24:28.129Z,28.15
2022-10-06T22:27:06.204Z,28.13
2022-10-06T22:29:43.488Z,25.63
2022-10-06T22:32:19.725Z,27.85
2022-10-06T22:34:55.093Z,28.63
2022-10-06T22:37:30.432Z,30.50
2022-10-06T22:40:07.791Z,29.58
2022-10-06T22:42:49.070Z,30.30
2022-10-06T22:45:21.488Z,30.90
2022-10-06T22:48:00.828Z,30.83
2022-10-06T22:50:28.762Z,32.40
2022-10-06T22:53:02.685Z,34.15
2022-10-06T22:55:38.282Z,35.20
2022-10-06T22:58:14.132Z,33.30
2022-10-06T23:00:53.958Z,33.50
2022-10-06T23:03:32.133Z,37.85
2022-10-06T23:06:04.629Z,32.80
2022-10-06T23:08:40.581Z,37.85
2022-10-06T23:11:11.783Z,37.67
2022-10-06T23:13:46.723Z,35.97
2022-10-06T23:16:23.119Z,36.35
2022-10-06T23:19:07.614Z,36.40
2022-10-06T23:21:47.657Z,39.40
2022-10-06T23:24:26.027Z,35.05
2022-10-06T23:27:04.483Z,36.72
2022-10-06T23:29:45.053Z,36.42
2022-10-06T23:32:20.088Z,35.35
2022-10-06T23:34:55.874Z,38.33
2022-10-06T23:37:37.533Z,36.03
2022-10-06T23:40:10.428Z,33.95
2022-10-06T23:42:40.256Z,35.45
2022-10-06T23:45:17.581Z,37.05
2022-10-06T23:47:55.764Z,34.50
2022-10-06T23:50:31.170Z,32.40
2022-10-06T23:53:09.280Z,35.05
2022-10-06T23:55:41.846Z,36.00
2022-10-06T23:58:21.820Z,36.53
